sensor_id;sensor_type;location;lat;lon;timestamp;pressure;altitude;pressure_sealevel;temperature;humidity
27643;BME280;15053;48.618;10.024;2023-04-27T00:00:39;94304.34;;;8.30;64.20
27643;BME280;15053;48.618;10.024;2023-04-27T00:03:05;94297.31;;;8.31;63.77
27643;BME280;15053;48.618;10.024;2023-04-27T00:05:36;94299.13;;;8.30;63.43
27643;BME280;15053;48.618;10.024;2023-04-27T00:08:05;94291.66;;;8.24;62.78
27643;BME280;15053;48.618;10.024;2023-04-27T00:10:32;94297.88;;;8.28;62.02
27643;BME280;15053;48.618;10.024;2023-04-27T00:12:59;94303.31;;;8.26;61.85
27643;BME280;15053;48.618;10.024;2023-04-27T00:15:27;94299.16;;;8.25;61.69
27643;BME280;15053;48.618;10.024;2023-04-27T00:17:54;94299.94;;;8.26;61.43
27643;BME280;15053;48.618;10.024;2023-04-27T00:20:20;94298.13;;;8.26;60.54
27643;BME280;15053;48.618;10.024;2023-04-27T00:22:47;94302.78;;;8.24;61.22
27643;BME280;15053;48.618;10.024;2023-04-27T00:25:13;94303.06;;;8.23;60.93
27643;BME280;15053;48.618;10.024;2023-04-27T00:27:40;94296.59;;;8.20;59.98
27643;BME280;15053;48.618;10.024;2023-04-27T00:30:08;94292.72;;;8.18;60.18
27643;BME280;15053;48.618;10.024;2023-04-27T00:32:34;94285.19;;;8.16;60.00
27643;BME280;15053;48.618;10.024;2023-04-27T00:35:01;94287.00;;;8.16;60.26
27643;BME280;15053;48.618;10.024;2023-04-27T00:37:28;94284.69;;;8.14;60.18
27643;BME280;15053;48.618;10.024;2023-04-27T00:39:54;94286.56;;;8.09;60.08
27643;BME280;15053;48.618;10.024;2023-04-27T00:42:21;94285.31;;;8.01;60.19
27643;BME280;15053;48.618;10.024;2023-04-27T00:44:50;94279.66;;;7.94;60.40
27643;BME280;15053;48.618;10.024;2023-04-27T00:47:16;94284.38;;;7.87;60.19
27643;BME280;15053;48.618;10.024;2023-04-27T00:49:43;94280.78;;;7.78;60.59
27643;BME280;15053;48.618;10.024;2023-04-27T00:52:10;94282.88;;;7.76;61.03
27643;BME280;15053;48.618;10.024;2023-04-27T00:54:37;94284.72;;;7.70;62.31
27643;BME280;15053;48.618;10.024;2023-04-27T00:57:03;94278.78;;;7.65;61.80
27643;BME280;15053;48.618;10.024;2023-04-27T00:59:30;94278.53;;;7.61;63.13
27643;BME280;15053;48.618;10.024;2023-04-27T01:01:56;94277.78;;;7.56;63.21
27643;BME280;15053;48.618;10.024;2023-04-27T01:04:23;94268.22;;;7.51;64.26
27643;BME280;15053;48.618;10.024;2023-04-27T01:06:50;94275.22;;;7.51;65.11
27643;BME280;15053;48.618;10.024;2023-04-27T01:09:17;94272.13;;;7.49;64.80
27643;BME280;15053;48.618;10.024;2023-04-27T01:11:48;94278.88;;;7.45;64.09
27643;BME280;15053;48.618;10.024;2023-04-27T01:14:14;94281.00;;;7.38;65.83
27643;BME280;15053;48.618;10.024;2023-04-27T01:16:42;94273.78;;;7.30;65.66
27643;BME280;15053;48.618;10.024;2023-04-27T01:19:09;94282.31;;;7.25;66.68
27643;BME280;15053;48.618;10.024;2023-04-27T01:21:36;94285.72;;;7.21;66.99
27643;BME280;15053;48.618;10.024;2023-04-27T01:24:05;94276.94;;;7.11;66.54
27643;BME280;15053;48.618;10.024;2023-04-27T01:26:31;94276.94;;;7.11;66.83
27643;BME280;15053;48.618;10.024;2023-04-27T01:28:58;94281.09;;;7.07;67.15
27643;BME280;15053;48.618;10.024;2023-04-27T01:31:26;94283.94;;;7.06;68.18
27643;BME280;15053;48.618;10.024;2023-04-27T01:33:54;94288.59;;;7.04;67.53
27643;BME280;15053;48.618;10.024;2023-04-27T01:36:20;94288.88;;;7.02;68.07
27643;BME280;15053;48.618;10.024;2023-04-27T01:38:47;94279.06;;;6.99;67.72
27643;BME280;15053;48.618;10.024;2023-04-27T01:41:14;94286.84;;;6.94;68.25
27643;BME280;15053;48.618;10.024;2023-04-27T01:43:40;94271.09;;;6.81;68.16
27643;BME280;15053;48.618;10.024;2023-04-27T01:46:11;94284.00;;;6.86;68.42
27643;BME280;15053;48.618;10.024;2023-04-27T01:48:39;94285.56;;;6.82;69.32
27643;BME280;15053;48.618;10.024;2023-04-27T01:51:05;94287.91;;;6.78;69.16
27643;BME280;15053;48.618;10.024;2023-04-27T01:53:32;94284.53;;;6.68;70.14
27643;BME280;15053;48.618;10.024;2023-04-27T01:55:59;94293.63;;;6.70;69.68
27643;BME280;15053;48.618;10.024;2023-04-27T01:58:26;94283.78;;;6.67;70.12
27643;BME280;15053;48.618;10.024;2023-04-27T02:00:52;94296.97;;;6.66;69.52
27643;BME280;15053;48.618;10.024;2023-04-27T02:03:19;94288.72;;;6.59;69.58
27643;BME280;15053;48.618;10.024;2023-04-27T02:05:48;94296.97;;;6.61;70.25
27643;BME280;15053;48.618;10.024;2023-04-27T02:08:15;94299.06;;;6.59;70.37
27643;BME280;15053;48.618;10.024;2023-04-27T02:10:43;94300.34;;;6.56;70.87
27643;BME280;15053;48.618;10.024;2023-04-27T02:13:09;94300.34;;;6.56;70.58
27643;BME280;15053;48.618;10.024;2023-04-27T02:15:36;94298.81;;;6.55;70.89
27643;BME280;15053;48.618;10.024;2023-04-27T02:18:03;94300.34;;;6.51;70.54
27643;BME280;15053;48.618;10.024;2023-04-27T02:20:30;94297.75;;;6.51;70.17
27643;BME280;15053;48.618;10.024;2023-04-27T02:22:59;94300.63;;;6.49;70.87
27643;BME280;15053;48.618;10.024;2023-04-27T02:25:26;94297.75;;;6.51;70.82
27643;BME280;15053;48.618;10.024;2023-04-27T02:27:53;94302.41;;;6.49;71.65
27643;BME280;15053;48.618;10.024;2023-04-27T02:30:20;94306.56;;;6.50;71.09
27643;BME280;15053;48.618;10.024;2023-04-27T02:32:47;94306.81;;;6.48;71.18
27643;BME280;15053;48.618;10.024;2023-04-27T02:35:14;94307.09;;;6.47;71.00
27643;BME280;15053;48.618;10.024;2023-04-27T02:37:40;94312.53;;;6.45;71.50
27643;BME280;15053;48.618;10.024;2023-04-27T02:40:07;94294.94;;;6.42;71.25
27643;BME280;15053;48.618;10.024;2023-04-27T02:42:34;94308.13;;;6.41;70.90
27643;BME280;15053;48.618;10.024;2023-04-27T02:45:01;94303.44;;;6.38;70.75
27643;BME280;15053;48.618;10.024;2023-04-27T02:47:28;94307.59;;;6.34;70.24
27643;BME280;15053;48.618;10.024;2023-04-27T02:49:54;94308.63;;;6.33;70.84
27643;BME280;15053;48.618;10.024;2023-04-27T02:52:21;94302.94;;;6.31;70.77
27643;BME280;15053;48.618;10.024;2023-04-27T02:54:48;94307.06;;;6.27;70.56
27643;BME280;15053;48.618;10.024;2023-04-27T02:57:14;94303.72;;;6.21;70.83
27643;BME280;15053;48.618;10.024;2023-04-27T02:59:41;94304.22;;;6.18;71.42
27643;BME280;15053;48.618;10.024;2023-04-27T03:02:07;94303.19;;;6.14;70.85
27643;BME280;15053;48.618;10.024;2023-04-27T03:04:34;94303.72;;;6.11;70.74
27643;BME280;15053;48.618;10.024;2023-04-27T03:07:02;94303.72;;;6.06;71.17
27643;BME280;15053;48.618;10.024;2023-04-27T03:09:29;94306.03;;;6.03;70.86
27643;BME280;15053;48.618;10.024;2023-04-27T03:11:56;94318.94;;;5.98;71.32
27643;BME280;15053;48.618;10.024;2023-04-27T03:14:22;94316.34;;;5.92;71.43
27643;BME280;15053;48.618;10.024;2023-04-27T03:16:50;94319.44;;;5.89;71.85
27643;BME280;15053;48.618;10.024;2023-04-27T03:19:17;94321.75;;;5.86;71.22
27643;BME280;15053;48.618;10.024;2023-04-27T03:21:43;94321.22;;;5.84;71.30
27643;BME280;15053;48.618;10.024;2023-04-27T03:24:10;94323.78;;;5.79;71.85
27643;BME280;15053;48.618;10.024;2023-04-27T03:26:36;94327.13;;;5.74;72.20
27643;BME280;15053;48.618;10.024;2023-04-27T03:29:03;94334.63;;;5.71;72.86
27643;BME280;15053;48.618;10.024;2023-04-27T03:31:29;94323.50;;;5.70;72.77
27643;BME280;15053;48.618;10.024;2023-04-27T03:33:56;94323.22;;;5.67;72.47
27643;BME280;15053;48.618;10.024;2023-04-27T03:36:23;94314.69;;;5.61;72.55
27643;BME280;15053;48.618;10.024;2023-04-27T03:38:49;94323.72;;;5.64;73.01
27643;BME280;15053;48.618;10.024;2023-04-27T03:41:16;94325.53;;;5.63;72.83
27643;BME280;15053;48.618;10.024;2023-04-27T03:43:42;94338.44;;;5.63;73.20
27643;BME280;15053;48.618;10.024;2023-04-27T03:46:09;94322.94;;;5.63;73.90
27643;BME280;15053;48.618;10.024;2023-04-27T03:48:36;94328.91;;;5.64;73.54
27643;BME280;15053;48.618;10.024;2023-04-27T03:51:02;94336.13;;;5.62;74.22
27643;BME280;15053;48.618;10.024;2023-04-27T03:53:29;94328.38;;;5.62;74.54
27643;BME280;15053;48.618;10.024;2023-04-27T03:55:56;94329.16;;;5.62;73.94
27643;BME280;15053;48.618;10.024;2023-04-27T03:58:22;94331.75;;;5.62;73.75
27643;BME280;15053;48.618;10.024;2023-04-27T04:01:10;94332.78;;;5.66;74.56
27643;BME280;15053;48.618;10.024;2023-04-27T04:03:37;94328.66;;;5.70;74.20
27643;BME280;15053;48.618;10.024;2023-04-27T04:06:06;94323.50;;;5.75;74.85
27643;BME280;15053;48.618;10.024;2023-04-27T04:08:33;94330.75;;;5.78;75.31
27643;BME280;15053;48.618;10.024;2023-04-27T04:10:59;94330.75;;;5.78;75.07
27643;BME280;15053;48.618;10.024;2023-04-27T04:13:27;94329.19;;;5.77;74.57
27643;BME280;15053;48.618;10.024;2023-04-27T04:16:04;94330.75;;;5.78;74.56
27643;BME280;15053;48.618;10.024;2023-04-27T04:18:33;94333.63;;;5.82;75.74
27643;BME280;15053;48.618;10.024;2023-04-27T04:20:59;94339.31;;;5.84;75.42
27643;BME280;15053;48.618;10.024;2023-04-27T04:23:26;94340.59;;;5.81;74.61
27643;BME280;15053;48.618;10.024;2023-04-27T04:25:54;94344.00;;;5.87;74.94
27643;BME280;15053;48.618;10.024;2023-04-27T04:28:27;94343.72;;;5.88;75.46
27643;BME280;15053;48.618;10.024;2023-04-27T04:30:54;94341.16;;;5.93;75.64
27643;BME280;15053;48.618;10.024;2023-04-27T04:33:21;94343.22;;;5.97;75.10
27643;BME280;15053;48.618;10.024;2023-04-27T04:35:47;94339.63;;;6.03;75.29
27643;BME280;15053;48.618;10.024;2023-04-27T04:38:14;94342.47;;;6.06;75.14
27643;BME280;15053;48.618;10.024;2023-04-27T04:40:40;94344.81;;;6.13;75.27
27643;BME280;15053;48.618;10.024;2023-04-27T04:43:11;94355.19;;;6.18;75.54
27643;BME280;15053;48.618;10.024;2023-04-27T04:45:38;94353.63;;;6.27;75.65
27643;BME280;15053;48.618;10.024;2023-04-27T04:48:05;94358.28;;;6.30;75.82
27643;BME280;15053;48.618;10.024;2023-04-27T04:50:31;94345.63;;;6.28;75.91
27643;BME280;15053;48.618;10.024;2023-04-27T04:52:58;94353.63;;;6.32;75.65
27643;BME280;15053;48.618;10.024;2023-04-27T04:55:25;94352.88;;;6.36;75.18
27643;BME280;15053;48.618;10.024;2023-04-27T04:57:53;94344.09;;;6.42;74.88
27643;BME280;15053;48.618;10.024;2023-04-27T05:00:20;94348.97;;;6.49;75.05
27643;BME280;15053;48.618;10.024;2023-04-27T05:02:47;94351.31;;;6.56;75.57
27643;BME280;15053;48.618;10.024;2023-04-27T05:05:14;94352.09;;;6.61;75.39
27643;BME280;15053;48.618;10.024;2023-04-27T05:07:41;94354.69;;;6.66;75.26
27643;BME280;15053;48.618;10.024;2023-04-27T05:10:08;94361.16;;;6.69;75.43
27643;BME280;15053;48.618;10.024;2023-04-27T05:12:34;94361.41;;;6.72;75.52
27643;BME280;15053;48.618;10.024;2023-04-27T05:15:01;94360.38;;;6.78;75.18
27643;BME280;15053;48.618;10.024;2023-04-27T05:17:28;94359.84;;;6.81;74.84
27643;BME280;15053;48.618;10.024;2023-04-27T05:19:54;94355.69;;;6.85;74.88
27643;BME280;15053;48.618;10.024;2023-04-27T05:22:21;94371.72;;;6.92;73.80
27643;BME280;15053;48.618;10.024;2023-04-27T05:24:47;94360.34;;;6.98;73.69
27643;BME280;15053;48.618;10.024;2023-04-27T05:27:14;94366.78;;;7.06;73.97
27643;BME280;15053;48.618;10.024;2023-04-27T05:29:40;94361.63;;;7.16;74.11
27643;BME280;15053;48.618;10.024;2023-04-27T05:32:07;94363.66;;;7.24;74.36
27643;BME280;15053;48.618;10.024;2023-04-27T05:34:34;94367.28;;;7.33;74.84
27643;BME280;15053;48.618;10.024;2023-04-27T05:37:01;94366.97;;;7.40;74.42
27643;BME280;15053;48.618;10.024;2023-04-27T05:39:28;94364.38;;;7.45;75.06
27643;BME280;15053;48.618;10.024;2023-04-27T05:41:55;94373.69;;;7.51;75.10
27643;BME280;15053;48.618;10.024;2023-04-27T05:44:22;94361.47;;;7.61;74.25
27643;BME280;15053;48.618;10.024;2023-04-27T05:46:53;94372.06;;;7.70;73.27
27643;BME280;15053;48.618;10.024;2023-04-27T05:49:21;94358.31;;;7.80;72.96
27643;BME280;15053;48.618;10.024;2023-04-27T05:51:48;94361.63;;;7.90;72.86
27643;BME280;15053;48.618;10.024;2023-04-27T05:54:15;94357.16;;;8.01;72.33
27643;BME280;15053;48.618;10.024;2023-04-27T05:56:41;94364.88;;;8.11;71.65
27643;BME280;15053;48.618;10.024;2023-04-27T05:59:08;94363.53;;;8.18;70.19
27643;BME280;15053;48.618;10.024;2023-04-27T06:01:35;94362.22;;;8.21;68.97
27643;BME280;15053;48.618;10.024;2023-04-27T06:04:02;94362.97;;;8.21;68.70
27643;BME280;15053;48.618;10.024;2023-04-27T06:06:33;94364.28;;;8.29;67.72
27643;BME280;15053;48.618;10.024;2023-04-27T06:09:00;94370.22;;;8.35;67.44
27643;BME280;15053;48.618;10.024;2023-04-27T06:11:27;94369.94;;;8.36;67.15
27643;BME280;15053;48.618;10.024;2023-04-27T06:13:53;94376.38;;;8.44;66.70
27643;BME280;15053;48.618;10.024;2023-04-27T06:16:20;94374.78;;;8.48;66.07
27643;BME280;15053;48.618;10.024;2023-04-27T06:18:51;94378.38;;;8.57;66.57
27643;BME280;15053;48.618;10.024;2023-04-27T06:21:17;94385.59;;;8.65;65.64
27643;BME280;15053;48.618;10.024;2023-04-27T06:23:44;94389.13;;;8.74;65.67
27643;BME280;15053;48.618;10.024;2023-04-27T06:26:10;94384.41;;;8.81;65.41
27643;BME280;15053;48.618;10.024;2023-04-27T06:28:39;94382.28;;;8.88;65.49
27643;BME280;15053;48.618;10.024;2023-04-27T06:31:05;94392.06;;;8.96;65.27
27643;BME280;15053;48.618;10.024;2023-04-27T06:33:32;94386.34;;;8.99;65.47
27643;BME280;15053;48.618;10.024;2023-04-27T06:36:00;94393.28;;;9.09;65.32
27643;BME280;15053;48.618;10.024;2023-04-27T06:38:27;94390.34;;;9.15;64.78
27643;BME280;15053;48.618;10.024;2023-04-27T06:40:54;94396.00;;;9.22;64.92
27643;BME280;15053;48.618;10.024;2023-04-27T06:43:20;94392.09;;;9.25;64.31
27643;BME280;15053;48.618;10.024;2023-04-27T06:45:47;94395.66;;;9.29;63.67
27643;BME280;15053;48.618;10.024;2023-04-27T06:48:14;94403.41;;;9.34;63.71
27643;BME280;15053;48.618;10.024;2023-04-27T06:50:40;94398.94;;;9.39;63.41
27643;BME280;15053;48.618;10.024;2023-04-27T06:53:07;94393.97;;;9.43;62.87
27643;BME280;15053;48.618;10.024;2023-04-27T06:55:34;94394.66;;;9.54;62.68
27643;BME280;15053;48.618;10.024;2023-04-27T06:58:01;94406.84;;;9.58;62.67
27643;BME280;15053;48.618;10.024;2023-04-27T07:00:28;94407.00;;;9.67;62.38
27643;BME280;15053;48.618;10.024;2023-04-27T07:02:55;94404.84;;;9.74;62.53
27643;BME280;15053;48.618;10.024;2023-04-27T07:05:22;94410.44;;;9.86;62.25
27643;BME280;15053;48.618;10.024;2023-04-27T07:07:48;94405.38;;;9.94;61.96
27643;BME280;15053;48.618;10.024;2023-04-27T07:10:15;94410.53;;;9.99;61.71
27643;BME280;15053;48.618;10.024;2023-04-27T07:12:41;94409.13;;;10.07;61.68
27643;BME280;15053;48.618;10.024;2023-04-27T07:15:08;94407.19;;;10.18;61.60
27643;BME280;15053;48.618;10.024;2023-04-27T07:17:35;94394.34;;;10.26;61.27
27643;BME280;15053;48.618;10.024;2023-04-27T07:20:02;94407.22;;;10.36;61.02
27643;BME280;15053;48.618;10.024;2023-04-27T07:22:32;94400.88;;;10.42;61.18
27643;BME280;15053;48.618;10.024;2023-04-27T07:24:59;94397.72;;;10.45;61.05
27643;BME280;15053;48.618;10.024;2023-04-27T07:27:25;94393.22;;;10.51;60.87
27643;BME280;15053;48.618;10.024;2023-04-27T07:29:52;94409.19;;;10.63;60.89
27643;BME280;15053;48.618;10.024;2023-04-27T07:32:19;94406.53;;;10.68;60.95
27643;BME280;15053;48.618;10.024;2023-04-27T07:34:47;94404.88;;;10.72;60.96
27643;BME280;15053;48.618;10.024;2023-04-27T07:37:19;94405.59;;;10.78;60.62
27643;BME280;15053;48.618;10.024;2023-04-27T07:39:48;94406.28;;;10.83;60.15
27643;BME280;15053;48.618;10.024;2023-04-27T07:42:15;94404.84;;;10.91;59.94
27643;BME280;15053;48.618;10.024;2023-04-27T07:44:42;94402.09;;;11.01;60.17
27643;BME280;15053;48.618;10.024;2023-04-27T07:47:08;94406.38;;;11.10;59.97
27643;BME280;15053;48.618;10.024;2023-04-27T07:49:36;94401.56;;;11.17;59.54
27643;BME280;15053;48.618;10.024;2023-04-27T07:52:02;94411.03;;;11.27;59.86
27643;BME280;15053;48.618;10.024;2023-04-27T07:54:29;94400.16;;;11.39;59.55
27643;BME280;15053;48.618;10.024;2023-04-27T07:56:56;94395.06;;;11.47;58.90
27643;BME280;15053;48.618;10.024;2023-04-27T07:59:23;94403.78;;;11.56;58.88
27643;BME280;15053;48.618;10.024;2023-04-27T08:01:49;94403.56;;;11.66;58.70
27643;BME280;15053;48.618;10.024;2023-04-27T08:04:16;94402.50;;;11.67;59.08
27643;BME280;15053;48.618;10.024;2023-04-27T08:06:43;94406.13;;;11.71;59.13
27643;BME280;15053;48.618;10.024;2023-04-27T08:09:12;94398.38;;;11.80;58.64
27643;BME280;15053;48.618;10.024;2023-04-27T08:11:39;94398.09;;;11.81;59.20
27643;BME280;15053;48.618;10.024;2023-04-27T08:14:06;94401.88;;;11.89;59.39
27643;BME280;15053;48.618;10.024;2023-04-27T08:16:42;94407.84;;;12.03;59.41
27643;BME280;15053;48.618;10.024;2023-04-27T08:19:09;94402.53;;;12.08;58.64
27643;BME280;15053;48.618;10.024;2023-04-27T08:21:36;94402.03;;;12.06;58.55
27643;BME280;15053;48.618;10.024;2023-04-27T08:24:04;94398.28;;;12.12;58.47
27643;BME280;15053;48.618;10.024;2023-04-27T08:26:31;94404.56;;;12.25;58.79
27643;BME280;15053;48.618;10.024;2023-04-27T08:28:58;94398.53;;;12.38;58.67
27643;BME280;15053;48.618;10.024;2023-04-27T08:31:25;94400.44;;;12.46;59.01
27643;BME280;15053;48.618;10.024;2023-04-27T08:33:52;94387.25;;;12.51;59.06
27643;BME280;15053;48.618;10.024;2023-04-27T08:36:21;94388.69;;;12.57;58.50
27643;BME280;15053;48.618;10.024;2023-04-27T08:38:50;94389.94;;;12.60;58.86
27643;BME280;15053;48.618;10.024;2023-04-27T08:41:20;94390.03;;;12.68;58.62
27643;BME280;15053;48.618;10.024;2023-04-27T08:43:49;94389.06;;;12.86;59.26
27643;BME280;15053;48.618;10.024;2023-04-27T08:46:19;94387.94;;;13.01;58.72
27643;BME280;15053;48.618;10.024;2023-04-27T08:48:50;94383.88;;;13.09;57.99
27643;BME280;15053;48.618;10.024;2023-04-27T08:51:17;94376.38;;;13.16;58.44
27643;BME280;15053;48.618;10.024;2023-04-27T08:56:13;94386.38;;;13.44;57.61
27643;BME280;15053;48.618;10.024;2023-04-27T08:58:40;94384.25;;;13.55;57.04
27643;BME280;15053;48.618;10.024;2023-04-27T09:01:07;94383.38;;;13.59;55.85
27643;BME280;15053;48.618;10.024;2023-04-27T09:03:34;94385.22;;;13.59;56.06
27643;BME280;15053;48.618;10.024;2023-04-27T09:06:05;94378.94;;;13.69;56.13
27643;BME280;15053;48.618;10.024;2023-04-27T09:08:46;94393.44;;;13.75;55.68
27643;BME280;15053;48.618;10.024;2023-04-27T09:11:37;94384.41;;;13.89;55.16
27643;BME280;15053;48.618;10.024;2023-04-27T09:14:18;94388.41;;;13.95;55.19
27643;BME280;15053;48.618;10.024;2023-04-27T09:16:55;94385.06;;;14.03;54.41
27643;BME280;15053;48.618;10.024;2023-04-27T09:19:24;94388.63;;;14.16;54.28
27643;BME280;15053;48.618;10.024;2023-04-27T09:22:04;94380.78;;;14.25;54.21
27643;BME280;15053;48.618;10.024;2023-04-27T09:24:31;94382.97;;;14.40;54.21
27643;BME280;15053;48.618;10.024;2023-04-27T09:26:58;94387.63;;;14.60;53.76
27643;BME280;15053;48.618;10.024;2023-04-27T09:29:37;94380.53;;;14.86;52.96
27643;BME280;15053;48.618;10.024;2023-04-27T09:32:16;94368.50;;;15.02;52.82
27643;BME280;15053;48.618;10.024;2023-04-27T09:34:44;94368.34;;;15.07;52.48
27643;BME280;15053;48.618;10.024;2023-04-27T09:37:11;94365.72;;;15.07;52.12
27643;BME280;15053;48.618;10.024;2023-04-27T09:39:38;94370.34;;;15.10;51.45
27643;BME280;15053;48.618;10.024;2023-04-27T09:42:04;94368.78;;;15.18;51.54
27643;BME280;15053;48.618;10.024;2023-04-27T09:44:32;94373.50;;;15.33;51.28
27643;BME280;15053;48.618;10.024;2023-04-27T09:46:58;94365.31;;;15.52;48.74
27643;BME280;15053;48.618;10.024;2023-04-27T09:49:27;94366.84;;;15.53;48.34
27643;BME280;15053;48.618;10.024;2023-04-27T09:51:56;94370.88;;;15.50;48.64
27643;BME280;15053;48.618;10.024;2023-04-27T09:54:26;94368.53;;;15.57;49.53
27643;BME280;15053;48.618;10.024;2023-04-27T09:57:49;94374.06;;;15.64;49.48
27643;BME280;15053;48.618;10.024;2023-04-27T10:00:33;94379.47;;;15.68;49.35
27643;BME280;15053;48.618;10.024;2023-04-27T10:03:06;94369.03;;;15.51;49.51
27643;BME280;15053;48.618;10.024;2023-04-27T10:05:49;94372.09;;;15.53;48.72
27643;BME280;15053;48.618;10.024;2023-04-27T10:08:25;94367.97;;;15.26;47.77
27643;BME280;15053;48.618;10.024;2023-04-27T10:10:52;94374.03;;;15.09;48.13
27643;BME280;15053;48.618;10.024;2023-04-27T10:13:20;94372.81;;;14.98;47.33
27643;BME280;15053;48.618;10.024;2023-04-27T10:15:47;94372.22;;;14.84;48.07
27643;BME280;15053;48.618;10.024;2023-04-27T10:18:29;94374.22;;;14.87;48.09
27643;BME280;15053;48.618;10.024;2023-04-27T10:21:08;94366.94;;;15.01;47.84
27643;BME280;15053;48.618;10.024;2023-04-27T10:23:44;94357.22;;;15.10;48.32
27643;BME280;15053;48.618;10.024;2023-04-27T10:26:11;94353.81;;;15.18;48.61
27643;BME280;15053;48.618;10.024;2023-04-27T10:28:38;94356.06;;;15.37;49.08
27643;BME280;15053;48.618;10.024;2023-04-27T10:31:09;94358.66;;;15.46;48.46
27643;BME280;15053;48.618;10.024;2023-04-27T10:33:41;94361.91;;;15.60;48.56
27643;BME280;15053;48.618;10.024;2023-04-27T10:36:13;94355.50;;;15.69;48.50
27643;BME280;15053;48.618;10.024;2023-04-27T10:38:41;94360.38;;;15.88;46.99
27643;BME280;15053;48.618;10.024;2023-04-27T10:41:13;94352.78;;;15.95;47.04
27643;BME280;15053;48.618;10.024;2023-04-27T10:43:39;94355.63;;;15.81;47.15
27643;BME280;15053;48.618;10.024;2023-04-27T10:46:13;94347.50;;;15.66;47.29
27643;BME280;15053;48.618;10.024;2023-04-27T10:48:41;94352.03;;;15.57;47.13
27643;BME280;15053;48.618;10.024;2023-04-27T10:51:08;94346.41;;;15.67;46.09
27643;BME280;15053;48.618;10.024;2023-04-27T10:53:36;94357.63;;;15.84;45.69
27643;BME280;15053;48.618;10.024;2023-04-27T10:56:03;94355.19;;;16.29;46.50
27643;BME280;15053;48.618;10.024;2023-04-27T10:58:32;94352.88;;;16.48;45.24
27643;BME280;15053;48.618;10.024;2023-04-27T11:01:25;94351.75;;;16.08;44.65
27643;BME280;15053;48.618;10.024;2023-04-27T11:03:56;94349.69;;;15.93;45.14
27643;BME280;15053;48.618;10.024;2023-04-27T11:06:23;94349.03;;;15.96;45.92
27643;BME280;15053;48.618;10.024;2023-04-27T11:08:50;94346.84;;;16.07;45.35
27643;BME280;15053;48.618;10.024;2023-04-27T11:11:16;94351.47;;;16.30;45.93
27643;BME280;15053;48.618;10.024;2023-04-27T11:13:43;94338.97;;;16.27;46.36
27643;BME280;15053;48.618;10.024;2023-04-27T11:16:10;94339.88;;;16.31;46.75
27643;BME280;15053;48.618;10.024;2023-04-27T11:18:37;94340.41;;;16.66;47.00
27643;BME280;15053;48.618;10.024;2023-04-27T11:23:33;94344.50;;;17.41;47.17
27643;BME280;15053;48.618;10.024;2023-04-27T11:28:43;94346.09;;;18.15;45.87
27643;BME280;15053;48.618;10.024;2023-04-27T11:31:11;94346.81;;;18.27;44.09
27643;BME280;15053;48.618;10.024;2023-04-27T11:33:37;94345.72;;;18.53;43.91
27643;BME280;15053;48.618;10.024;2023-04-27T11:36:15;94343.25;;;18.60;42.79
27643;BME280;15053;48.618;10.024;2023-04-27T11:38:42;94336.19;;;18.12;42.13
27643;BME280;15053;48.618;10.024;2023-04-27T11:41:09;94333.91;;;17.62;42.66
27643;BME280;15053;48.618;10.024;2023-04-27T11:43:40;94331.53;;;17.36;42.86
27643;BME280;15053;48.618;10.024;2023-04-27T11:46:08;94330.38;;;17.13;43.81
27643;BME280;15053;48.618;10.024;2023-04-27T11:48:38;94336.91;;;16.95;44.24
27643;BME280;15053;48.618;10.024;2023-04-27T11:51:06;94344.75;;;16.83;44.55
27643;BME280;15053;48.618;10.024;2023-04-27T11:53:37;94337.91;;;16.70;44.16
27643;BME280;15053;48.618;10.024;2023-04-27T11:56:09;94334.50;;;16.69;44.47
27643;BME280;15053;48.618;10.024;2023-04-27T11:58:37;94332.91;;;16.77;44.91
27643;BME280;15053;48.618;10.024;2023-04-27T12:01:09;94339.81;;;16.81;45.00
27643;BME280;15053;48.618;10.024;2023-04-27T12:03:37;94338.09;;;16.65;44.26
27643;BME280;15053;48.618;10.024;2023-04-27T12:06:04;94336.09;;;16.41;43.69
27643;BME280;15053;48.618;10.024;2023-04-27T12:08:47;94342.44;;;16.19;44.59
27643;BME280;15053;48.618;10.024;2023-04-27T12:11:13;94340.03;;;16.06;45.06
27643;BME280;15053;48.618;10.024;2023-04-27T12:13:40;94349.31;;;16.03;44.43
27643;BME280;15053;48.618;10.024;2023-04-27T12:16:06;94342.91;;;15.92;44.33
27643;BME280;15053;48.618;10.024;2023-04-27T12:18:33;94351.41;;;15.89;44.08
27643;BME280;15053;48.618;10.024;2023-04-27T12:20:59;94343.38;;;15.85;43.80
27643;BME280;15053;48.618;10.024;2023-04-27T12:23:28;94351.44;;;15.80;44.27
27643;BME280;15053;48.618;10.024;2023-04-27T12:25:55;94344.50;;;15.84;44.74
27643;BME280;15053;48.618;10.024;2023-04-27T12:28:21;94342.59;;;15.85;45.11
27643;BME280;15053;48.618;10.024;2023-04-27T12:30:48;94345.97;;;15.94;44.74
27643;BME280;15053;48.618;10.024;2023-04-27T12:33:15;94343.44;;;16.06;45.30
27643;BME280;15053;48.618;10.024;2023-04-27T12:35:42;94349.47;;;16.07;45.78
27643;BME280;15053;48.618;10.024;2023-04-27T12:38:08;94347.66;;;15.99;45.39
27643;BME280;15053;48.618;10.024;2023-04-27T12:40:35;94349.31;;;16.03;44.92
27643;BME280;15053;48.618;10.024;2023-04-27T12:43:01;94348.22;;;16.33;45.53
27643;BME280;15053;48.618;10.024;2023-04-27T12:45:28;94334.69;;;16.43;44.64
27643;BME280;15053;48.618;10.024;2023-04-27T12:47:54;94337.84;;;16.37;44.77
27643;BME280;15053;48.618;10.024;2023-04-27T12:50:32;94336.84;;;16.21;44.59
27643;BME280;15053;48.618;10.024;2023-04-27T12:52:59;94336.44;;;16.10;44.88
27643;BME280;15053;48.618;10.024;2023-04-27T12:55:26;94338.81;;;16.03;45.03
27643;BME280;15053;48.618;10.024;2023-04-27T12:58:00;94333.22;;;16.05;44.63
27643;BME280;15053;48.618;10.024;2023-04-27T13:00:27;94339.34;;;16.17;45.37
27643;BME280;15053;48.618;10.024;2023-04-27T13:02:55;94332.56;;;16.37;44.98
27643;BME280;15053;48.618;10.024;2023-04-27T13:05:22;94330.31;;;16.27;44.06
27643;BME280;15053;48.618;10.024;2023-04-27T13:07:49;94333.13;;;16.22;44.87